| DS18B20 | SHTC3 | ||||||
|---|---|---|---|---|---|---|---|
| ID | Date d/m/Y & Time | data1 สูง | data2 ต่ำ | data3 นอก | temp pcb | hum pcb | Time |
| 2024 | 13/03/2026 07:56:09 | 26.6  | 26.6  | 27.0  | 26.6  | 70.8  | 07:56 |
| 2023 | 13/03/2026 07:51:28 | 26.6  | 26.5  | 27.1  | 26.4  | 70.8  | 07:51 |
| 2022 | 13/03/2026 07:46:46 | 26.5  | 26.5  | 26.8  | 26.4  | 70.9  | 07:46 |
| 2021 | 13/03/2026 07:42:04 | 26.4  | 26.5  | 26.5  | 26.4  | 70.9  | 07:42 |
| 2020 | 13/03/2026 07:37:22 | 26.4  | 26.5  | 26.5  | 26.4  | 70.9  | 07:37 |
| 2019 | 13/03/2026 07:32:41 | 26.4  | 26.5  | 26.4  | 26.4  | 71.1  | 07:32 |
| 2018 | 13/03/2026 07:27:59 | 26.4  | 26.4  | 26.1  | 26.4  | 71.1  | 07:27 |
| 2017 | 13/03/2026 07:23:18 | 26.4  | 26.4  | 26.0  | 26.5  | 71.0  | 07:23 |
| 2016 | 13/03/2026 07:18:36 | 26.4  | 26.4  | 25.8  | 26.4  | 71.2  | 07:18 |
| 2015 | 13/03/2026 07:13:54 | 26.4  | 26.4  | 25.8  | 26.1  | 71.1  | 07:13 |
| 2014 | 13/03/2026 07:09:12 | 26.4  | 26.5  | 25.6  | 26.5  | 71.1  | 07:09 |
| 2013 | 13/03/2026 07:04:26 | 26.4  | 26.5  | 25.5  | 26.4  | 71.2  | 07:04 |
| 2012 | 13/03/2026 06:59:45 | 26.4  | 26.5  | 25.6  | 26.4  | 71.3  | 06:59 |
| 2011 | 13/03/2026 06:55:03 | 26.4  | 26.5  | 25.5  | 26.3  | 71.2  | 06:55 |
| 2010 | 13/03/2026 06:50:22 | 26.4  | 26.5  | 25.5  | 26.4  | 71.3  | 06:50 |
| 2009 | 13/03/2026 06:45:40 | 26.4  | 26.5  | 25.4  | 26.4  | 71.3  | 06:45 |
| 2008 | 13/03/2026 06:40:59 | 26.4  | 26.6  | 25.4  | 26.5  | 71.3  | 06:40 |
| 2007 | 13/03/2026 06:36:18 | 26.5  | 26.6  | 25.3  | 26.4  | 71.3  | 06:36 |
| 2006 | 13/03/2026 06:31:36 | 26.5  | 26.6  | 25.3  | 26.2  | 71.3  | 06:31 |
| 2005 | 13/03/2026 06:26:54 | 26.5  | 26.6  | 25.3  | 26.6  | 71.4  | 06:26 |
| 2004 | 13/03/2026 06:22:13 | 26.6  | 26.6  | 25.4  | 26.4  | 71.2  | 06:22 |
| 2003 | 13/03/2026 06:17:31 | 26.6  | 26.6  | 25.3  | 26.5  | 71.3  | 06:17 |
| 2002 | 13/03/2026 06:12:49 | 26.6  | 26.7  | 25.4  | 26.4  | 71.3  | 06:12 |
| 2001 | 13/03/2026 06:08:08 | 26.6  | 26.7  | 25.3  | 26.6  | 71.3  | 06:08 |